Time;durP1;ratioP1;P1;durP2;ratioP2;P2;SDS_P1;SDS_P2;PMS_P1;PMS_P2;Temp;Humidity;BMP_temperature;BMP_pressure;BME280_temperature;BME280_humidity;BME280_pressure;Samples;Min_cycle;Max_cycle;Signal;HPM_P1;HPM_P2
2021/11/04 00:08:27;;;;;;;7.10;3.03;;;6.50;99.90;;;;;;20559251;28;20038;-44
2021/11/04 00:18:29;;;;;;;8.15;2.42;;;6.30;99.90;;;;;;20552589;28;20425;-43
2021/11/04 00:28:30;;;;;;;6.65;2.60;;;6.20;99.90;;;;;;20543939;28;20062;-43
2021/11/04 00:38:31;;;;;;;5.78;2.35;;;6.30;99.90;;;;;;20542827;28;20069;-43
2021/11/04 00:48:32;;;;;;;5.82;2.13;;;6.10;99.90;;;;;;20547340;28;20034;-44
2021/11/04 00:58:33;;;;;;;6.85;2.60;;;6.00;99.90;;;;;;20546586;28;20053;-43
2021/11/04 01:08:34;;;;;;;6.20;2.88;;;6.00;99.90;;;;;;20534331;28;20043;-43
2021/11/04 01:18:36;;;;;;;5.35;2.53;;;5.90;99.90;;;;;;20541619;28;20702;-44
2021/11/04 01:28:39;;;;;;;6.93;2.58;;;6.00;99.90;;;;;;20536694;28;20027;-44
2021/11/04 01:38:40;;;;;;;7.38;2.78;;;6.00;99.90;;;;;;20536653;28;20059;-44
2021/11/04 01:48:41;;;;;;;4.93;2.42;;;5.90;99.90;;;;;;20550451;28;20362;-43
2021/11/04 01:58:42;;;;;;;7.45;2.33;;;5.80;99.90;;;;;;20536851;28;20058;-43
2021/11/04 02:09:06;;;;;;;6.60;2.38;;;5.80;99.90;;;;;;20525362;28;20321;-43
2021/11/04 02:19:23;;;;;;;7.05;2.83;;;5.70;99.90;;;;;;20572742;28;20547;-44
2021/11/04 02:29:25;;;;;;;4.85;2.13;;;5.50;99.90;;;;;;20539312;28;20057;-43
2021/11/04 02:39:27;;;;;;;5.25;1.73;;;5.50;99.90;;;;;;20542365;28;20074;-43
2021/11/04 02:49:30;;;;;;;7.57;2.53;;;5.40;99.90;;;;;;20536161;28;20042;-43
2021/11/04 02:59:31;;;;;;;6.80;2.30;;;5.30;99.90;;;;;;20531765;28;20062;-44
2021/11/04 03:09:34;;;;;;;4.45;1.98;;;5.10;99.90;;;;;;20516761;28;20034;-43
2021/11/04 03:19:35;;;;;;;5.50;2.08;;;4.90;99.90;;;;;;20545500;28;20038;-43
2021/11/04 03:29:39;;;;;;;4.50;1.60;;;4.90;99.90;;;;;;20544408;28;20050;-43
2021/11/04 03:39:43;;;;;;;4.28;1.58;;;5.00;99.90;;;;;;20537315;28;20061;-43
2021/11/04 03:49:49;;;;;;;5.93;1.77;;;4.80;99.90;;;;;;20548435;28;20053;-43
2021/11/04 03:59:51;;;;;;;3.60;1.80;;;4.80;99.90;;;;;;20541420;28;20050;-43
2021/11/04 04:09:53;;;;;;;6.22;2.58;;;4.70;99.90;;;;;;20551216;28;20034;-43
2021/11/04 04:19:55;;;;;;;5.07;1.98;;;4.60;99.90;;;;;;20580837;28;20050;-43
2021/11/04 04:29:56;;;;;;;4.30;2.05;;;4.40;99.90;;;;;;20553355;28;20054;-43
2021/11/04 04:39:57;;;;;;;6.57;2.42;;;4.20;99.90;;;;;;20555043;28;20397;-43
2021/11/04 04:50:00;;;;;;;6.15;2.80;;;4.10;99.90;;;;;;20572680;28;20057;-43
2021/11/04 05:00:11;;;;;;;4.63;1.85;;;4.20;99.90;;;;;;20542089;28;20034;-43
2021/11/04 05:10:12;;;;;;;6.70;2.75;;;4.40;99.90;;;;;;20585367;28;21273;-43
2021/11/04 05:20:13;;;;;;;4.22;1.80;;;4.50;99.90;;;;;;20543573;28;20056;-43
2021/11/04 05:30:16;;;;;;;6.65;2.85;;;4.60;99.90;;;;;;20546583;28;20046;-43
2021/11/04 05:40:18;;;;;;;4.70;2.53;;;4.60;99.90;;;;;;20545906;28;20535;-43
2021/11/04 05:50:20;;;;;;;6.15;2.97;;;4.70;99.90;;;;;;20550970;28;20505;-43
2021/11/04 06:00:21;;;;;;;6.05;2.80;;;4.90;99.90;;;;;;20546672;28;20568;-43
2021/11/04 06:10:26;;;;;;;6.68;3.55;;;4.90;99.90;;;;;;20536661;28;20034;-43
2021/11/04 06:20:27;;;;;;;9.15;3.25;;;5.00;99.90;;;;;;20543017;28;20038;-44
2021/11/04 06:30:28;;;;;;;5.65;2.85;;;5.10;99.90;;;;;;20540681;28;20054;-44
2021/11/04 06:40:29;;;;;;;7.30;3.58;;;5.10;99.90;;;;;;20512681;28;20059;-44
2021/11/04 06:50:32;;;;;;;4.78;3.17;;;5.20;99.90;;;;;;20540554;28;20058;-43
2021/11/04 07:00:36;;;;;;;6.45;3.28;;;5.30;99.90;;;;;;20545183;28;20050;-43
2021/11/04 07:10:37;;;;;;;7.63;3.60;;;5.50;99.90;;;;;;20527141;28;20473;-43
2021/11/04 07:20:41;;;;;;;6.97;3.10;;;5.60;99.90;;;;;;20536111;28;20038;-44
2021/11/04 07:30:43;;;;;;;9.75;3.83;;;5.80;99.90;;;;;;20539951;28;20500;-44
2021/11/04 07:40:44;;;;;;;9.63;3.75;;;5.90;99.90;;;;;;20554431;28;20055;-44
2021/11/04 07:50:48;;;;;;;9.55;3.55;;;5.90;99.90;;;;;;20552664;28;20334;-44
2021/11/04 08:00:49;;;;;;;6.60;3.38;;;6.00;99.90;;;;;;20564426;28;20054;-44
2021/11/04 08:10:54;;;;;;;8.43;3.50;;;6.10;99.90;;;;;;20545587;28;20397;-44
2021/11/04 08:20:55;;;;;;;6.80;3.63;;;6.30;99.90;;;;;;20554052;28;20054;-44
2021/11/04 08:30:57;;;;;;;8.18;3.65;;;6.30;99.90;;;;;;20558140;28;20039;-44
2021/11/04 08:40:58;;;;;;;6.15;3.05;;;6.40;99.90;;;;;;20557986;28;20063;-44
2021/11/04 08:50:59;;;;;;;6.93;2.85;;;6.50;99.90;;;;;;20552733;28;20039;-44
2021/11/04 09:01:01;;;;;;;4.15;2.10;;;6.60;99.90;;;;;;20562267;28;20047;-44
2021/11/04 09:11:02;;;;;;;4.93;2.55;;;6.80;99.90;;;;;;20506323;28;20058;-44
2021/11/04 09:21:03;;;;;;;5.13;2.28;;;7.10;99.90;;;;;;20528546;28;20054;-44
2021/11/04 09:31:05;;;;;;;4.72;2.58;;;7.40;99.90;;;;;;20537443;28;20437;-44
2021/11/04 09:41:06;;;;;;;7.00;3.20;;;7.60;99.90;;;;;;20558541;28;20066;-44
2021/11/04 09:51:09;;;;;;;7.40;3.30;;;7.80;99.90;;;;;;20553430;28;20049;-44
2021/11/04 10:01:18;;;;;;;7.43;2.53;;;8.00;99.90;;;;;;20537055;28;20058;-44
2021/11/04 10:11:21;;;;;;;5.57;2.30;;;8.10;99.90;;;;;;20531013;28;20164;-44
2021/11/04 10:21:24;;;;;;;4.93;2.60;;;8.30;99.90;;;;;;20532764;28;20433;-44
2021/11/04 10:31:41;;;;;;;3.90;2.20;;;8.50;99.90;;;;;;20539016;28;20416;-45
2021/11/04 10:41:44;;;;;;;7.27;3.40;;;8.70;99.90;;;;;;20578490;28;20043;-44
2021/11/04 10:52:14;;;;;;;6.63;3.60;;;8.70;99.90;;;;;;20550014;28;20066;-44
2021/11/04 11:02:21;;;;;;;6.72;3.58;;;8.60;99.90;;;;;;20529640;28;20069;-44
2021/11/04 11:12:22;;;;;;;6.25;3.17;;;9.50;99.90;;;;;;20539683;28;20718;-45
2021/11/04 11:22:24;;;;;;;7.00;2.70;;;10.40;99.90;;;;;;20550279;28;20058;-45
2021/11/04 11:32:32;;;;;;;5.10;2.65;;;11.40;99.90;;;;;;20534828;28;20054;-44
2021/11/04 11:42:35;;;;;;;3.13;1.77;;;11.40;99.90;;;;;;20580003;28;20531;-44
2021/11/04 11:52:50;;;;;;;3.92;1.77;;;10.80;99.90;;;;;;20563117;28;20978;-44
2021/11/04 12:02:57;;;;;;;2.13;1.00;;;10.40;99.90;;;;;;20586150;28;20622;-45
2021/11/04 12:12:59;;;;;;;1.67;0.88;;;10.20;99.90;;;;;;20567807;28;20378;-44
2021/11/04 12:23:00;;;;;;;1.92;0.68;;;10.10;99.90;;;;;;20528777;28;20054;-44
2021/11/04 12:33:08;;;;;;;5.20;0.90;;;10.60;99.90;;;;;;20538691;28;20038;-44
2021/11/04 12:43:11;;;;;;;3.65;1.20;;;11.10;99.90;;;;;;20540918;28;20054;-44
2021/11/04 12:53:12;;;;;;;2.90;1.20;;;11.40;99.90;;;;;;20541016;28;20042;-45
2021/11/04 13:03:14;;;;;;;2.80;1.02;;;12.70;99.90;;;;;;20543809;28;20060;-45
2021/11/04 13:13:15;;;;;;;1.67;0.77;;;13.10;99.90;;;;;;20538460;28;20073;-45
2021/11/04 13:23:24;;;;;;;2.20;0.70;;;12.40;99.90;;;;;;20534121;28;20066;-45
2021/11/04 13:33:36;;;;;;;2.10;1.02;;;11.80;99.90;;;;;;20512916;28;20043;-44
2021/11/04 13:43:46;;;;;;;1.13;0.50;;;11.30;99.90;;;;;;20533099;28;20034;-44
2021/11/04 13:53:47;;;;;;;1.63;0.40;;;10.90;99.90;;;;;;20536092;28;20652;-44
2021/11/04 14:04:12;;;;;;;1.55;0.68;;;10.70;99.90;;;;;;20530809;28;20047;-44
2021/11/04 14:14:14;;;;;;;0.90;0.30;;;10.60;99.90;;;;;;20533673;28;20370;-45
2021/11/04 14:24:15;;;;;;;1.58;0.55;;;11.70;99.90;;;;;;20526912;28;20051;-45
2021/11/04 14:34:17;;;;;;;0.40;0.20;;;13.00;99.90;;;;;;20534876;28;20408;-45
2021/11/04 14:44:18;;;;;;;0.30;0.13;;;12.70;99.90;;;;;;20533346;28;20069;-44
2021/11/04 14:54:20;;;;;;;0.68;0.10;;;12.50;99.90;;;;;;20533519;28;20043;-44
2021/11/04 15:04:21;;;;;;;0.28;0.08;;;11.70;99.90;;;;;;20542415;28;20043;-44
2021/11/04 15:14:24;;;;;;;1.63;0.43;;;10.90;99.90;;;;;;20490841;28;20058;-44
2021/11/04 15:24:25;;;;;;;2.08;0.63;;;10.30;99.90;;;;;;20558967;28;20047;-44
2021/11/04 15:34:26;;;;;;;0.75;0.28;;;9.90;99.90;;;;;;20507290;28;20059;-44
2021/11/04 15:44:27;;;;;;;1.25;0.35;;;9.60;99.90;;;;;;20538881;28;20098;-44
2021/11/04 15:54:31;;;;;;;0.70;0.20;;;9.30;99.90;;;;;;20529565;28;20054;-44
2021/11/04 16:04:32;;;;;;;1.65;0.75;;;9.00;99.90;;;;;;20545886;28;20038;-44
2021/11/04 16:14:34;;;;;;;2.60;0.77;;;8.70;99.90;;;;;;20571570;28;20375;-44
2021/11/04 16:24:36;;;;;;;2.80;1.20;;;8.60;99.90;;;;;;20545072;28;20054;-44
2021/11/04 16:34:38;;;;;;;3.28;1.50;;;8.40;99.90;;;;;;20541962;28;20174;-44
2021/11/04 16:44:41;;;;;;;2.95;1.42;;;8.30;99.90;;;;;;20557230;28;20050;-44
2021/11/04 16:54:44;;;;;;;2.97;1.33;;;8.20;99.90;;;;;;20539179;28;20493;-44
2021/11/04 17:04:48;;;;;;;3.72;1.83;;;8.10;99.90;;;;;;20541863;28;20038;-44
2021/11/04 17:14:49;;;;;;;4.82;1.25;;;8.00;99.90;;;;;;20532949;28;20062;-44
2021/11/04 17:24:50;;;;;;;2.90;1.05;;;7.90;99.90;;;;;;20534618;28;20508;-44
2021/11/04 17:34:52;;;;;;;15.65;3.53;;;7.70;99.90;;;;;;20543174;28;20051;-44
2021/11/04 17:44:53;;;;;;;4.00;1.15;;;7.60;99.90;;;;;;20536901;28;20050;-44
2021/11/04 17:54:58;;;;;;;4.85;1.20;;;7.50;99.90;;;;;;20550161;28;20352;-44
2021/11/04 18:04:59;;;;;;;2.67;1.20;;;7.40;99.90;;;;;;20570991;28;20057;-44
2021/11/04 18:15:03;;;;;;;2.72;1.38;;;7.30;99.90;;;;;;20571764;28;20062;-44
2021/11/04 18:25:05;;;;;;;2.58;1.33;;;7.20;99.90;;;;;;20577196;28;20062;-44
2021/11/04 18:35:06;;;;;;;3.22;1.38;;;7.10;99.90;;;;;;20558396;28;20626;-44
2021/11/04 18:45:08;;;;;;;4.25;1.75;;;7.00;99.90;;;;;;20558285;28;20073;-44
2021/11/04 18:55:09;;;;;;;4.00;2.22;;;7.00;99.90;;;;;;20541815;28;20493;-44
2021/11/04 19:05:12;;;;;;;4.65;2.13;;;7.00;99.90;;;;;;20531144;28;20041;-44
2021/11/04 19:15:14;;;;;;;7.30;2.03;;;6.90;99.90;;;;;;20542209;28;20042;-44
2021/11/04 19:25:17;;;;;;;3.63;2.05;;;6.90;99.90;;;;;;20557699;28;20054;-44
2021/11/04 19:35:18;;;;;;;3.17;1.90;;;6.70;99.90;;;;;;20551409;28;20650;-44
2021/11/04 19:45:20;;;;;;;5.57;2.22;;;6.60;99.90;;;;;;20549519;28;20042;-44
2021/11/04 19:55:23;;;;;;;3.70;1.88;;;6.60;99.90;;;;;;20548868;28;20050;-44
2021/11/04 20:05:25;;;;;;;3.35;1.88;;;6.40;99.90;;;;;;20553907;28;20037;-44
2021/11/04 20:15:27;;;;;;;3.00;1.35;;;6.40;99.90;;;;;;20552212;28;20058;-44
2021/11/04 20:25:28;;;;;;;4.53;2.17;;;6.30;99.90;;;;;;20536537;28;20043;-44
2021/11/04 20:35:29;;;;;;;3.85;2.15;;;6.50;99.90;;;;;;20555053;28;20523;-44
2021/11/04 20:45:31;;;;;;;4.97;2.17;;;6.50;99.90;;;;;;20574516;28;20051;-44
2021/11/04 20:55:33;;;;;;;3.58;1.80;;;6.50;99.90;;;;;;20553315;28;20054;-44
2021/11/04 21:05:34;;;;;;;3.72;1.70;;;6.60;99.90;;;;;;20565943;28;20599;-44
2021/11/04 21:15:35;;;;;;;3.58;1.45;;;6.50;99.90;;;;;;20532832;28;20139;-44
2021/11/04 21:25:37;;;;;;;4.68;2.03;;;6.50;99.90;;;;;;20539599;28;20043;-44
2021/11/04 21:35:38;;;;;;;6.38;3.05;;;6.50;99.90;;;;;;20540952;28;20420;-44
2021/11/04 21:45:39;;;;;;;4.07;2.28;;;6.50;99.90;;;;;;20538245;28;20046;-44
2021/11/04 21:55:40;;;;;;;2.80;0.95;;;6.50;99.90;;;;;;20547607;28;20042;-44
2021/11/04 22:05:43;;;;;;;3.45;1.65;;;6.70;99.90;;;;;;20553436;28;20046;-44
2021/11/04 22:15:44;;;;;;;3.50;1.60;;;6.70;99.90;;;;;;20560440;28;20048;-44
2021/11/04 22:25:46;;;;;;;3.05;0.80;;;6.60;99.90;;;;;;20569333;28;20042;-44
2021/11/04 22:35:48;;;;;;;1.95;0.90;;;6.40;99.90;;;;;;20543142;28;20073;-44
2021/11/04 22:45:50;;;;;;;2.50;1.10;;;6.30;99.90;;;;;;20546728;28;20059;-44
2021/11/04 22:55:51;;;;;;;3.53;0.77;;;6.20;99.90;;;;;;20550754;28;20043;-44
2021/11/04 23:05:53;;;;;;;2.65;0.85;;;6.20;99.90;;;;;;20542914;28;20500;-43
2021/11/04 23:15:55;;;;;;;1.48;0.43;;;6.10;99.90;;;;;;20551735;28;20054;-43
2021/11/04 23:25:56;;;;;;;1.52;0.90;;;6.00;99.90;;;;;;20554745;28;20054;-43
2021/11/04 23:35:58;;;;;;;1.65;0.60;;;6.00;99.90;;;;;;20567028;28;20050;-43
2021/11/04 23:46:00;;;;;;;0.95;0.32;;;5.90;99.90;;;;;;20547393;28;20047;-44
2021/11/04 23:56:02;;;;;;;0.70;0.30;;;5.80;99.90;;;;;;20558688;28;20049;-43
